createdAt,value
2022-11-28T00:01:59.174Z,99341.00
2022-11-28T00:05:02.012Z,99338.34
2022-11-28T00:08:04.745Z,99351.59
2022-11-28T00:11:10.296Z,99328.56
2022-11-28T00:14:13.333Z,99335.66
2022-11-28T00:17:16.167Z,99332.09
2022-11-28T00:20:18.846Z,99336.53
2022-11-28T00:23:21.679Z,99337.41
2022-11-28T00:26:26.899Z,99342.72
2022-11-28T00:29:30.277Z,99340.94
2022-11-28T00:32:32.876Z,99346.28
2022-11-28T00:35:35.636Z,99341.84
2022-11-28T00:38:38.596Z,99353.31
2022-11-28T00:41:41.643Z,99348.06
2022-11-28T00:44:44.432Z,99356.03
2022-11-28T00:47:48.289Z,99353.34
2022-11-28T00:50:51.433Z,99359.56
2022-11-28T00:53:56.657Z,99343.63
2022-11-28T00:56:59.207Z,99363.16
2022-11-28T01:00:02.246Z,99356.06
2022-11-28T01:03:05.377Z,99363.13
2022-11-28T01:06:09.696Z,99358.72
2022-11-28T01:09:19.081Z,99356.03
2022-11-28T01:12:21.907Z,99360.47
2022-11-28T01:15:24.540Z,99353.41
2022-11-28T01:18:27.492Z,99358.72
2022-11-28T01:21:30.171Z,99348.09
2022-11-28T01:24:33.577Z,99348.97
2022-11-28T01:27:36.044Z,99349.88
2022-11-28T01:30:41.799Z,99351.66
2022-11-28T01:33:44.847Z,99347.19
2022-11-28T01:36:47.581Z,99357.84
2022-11-28T01:39:50.078Z,99356.06
2022-11-28T01:42:52.810Z,99352.53
2022-11-28T01:45:55.790Z,99346.31
2022-11-28T01:49:03.489Z,99353.44
2022-11-28T01:52:12.115Z,99340.16
2022-11-28T01:55:17.642Z,99330.41
2022-11-28T01:58:20.191Z,99326.84
2022-11-28T02:01:25.498Z,99317.97
2022-11-28T02:04:28.436Z,99325.06
2022-11-28T02:07:30.915Z,99320.66
2022-11-28T02:10:54.342Z,99302.94
2022-11-28T02:14:28.300Z,99301.16
2022-11-28T02:18:01.436Z,99301.16
2022-11-28T02:21:55.428Z,99302.91
2022-11-28T02:25:21.004Z,99308.22
2022-11-28T02:28:52.797Z,99305.56
2022-11-28T02:32:13.848Z,99294.94
2022-11-28T02:35:47.939Z,99286.97
2022-11-28T02:39:15.622Z,99282.56
2022-11-28T02:42:31.394Z,99284.31
2022-11-28T02:45:58.482Z,99277.25
2022-11-28T02:49:27.699Z,99277.25
2022-11-28T02:52:36.549Z,99284.31
2022-11-28T02:55:41.155Z,99282.53
2022-11-28T02:58:44.069Z,99279.88
2022-11-28T03:01:46.696Z,99276.34
2022-11-28T03:04:49.476Z,99268.38
2022-11-28T03:07:54.865Z,99264.81
2022-11-28T03:11:11.871Z,99269.25
2022-11-28T03:14:24.690Z,99271.03
2022-11-28T03:17:27.465Z,99265.72
2022-11-28T03:20:46.574Z,99272.78
2022-11-28T03:23:53.358Z,99276.31
2022-11-28T03:26:58.018Z,99260.38
2022-11-28T03:30:06.769Z,99265.69
2022-11-28T03:33:12.968Z,99265.69
2022-11-28T03:36:21.573Z,99255.97
2022-11-28T03:39:28.443Z,99255.97
2022-11-28T03:42:35.132Z,99263.03
2022-11-28T03:45:56.922Z,99252.41
2022-11-28T03:49:00.909Z,99254.19
2022-11-28T03:52:11.504Z,99250.66
2022-11-28T03:55:19.407Z,99246.19
2022-11-28T03:58:37.622Z,99237.34
2022-11-28T04:01:47.653Z,99226.72
2022-11-28T04:05:02.629Z,99220.50
2022-11-28T04:08:14.570Z,99217.84
2022-11-28T04:11:25.560Z,99215.19
2022-11-28T04:14:35.091Z,99217.84
2022-11-28T04:17:47.897Z,99208.97
2022-11-28T04:20:58.373Z,99206.31
2022-11-28T04:24:08.559Z,99209.88
2022-11-28T04:27:14.374Z,99194.81
2022-11-28T04:30:17.322Z,99191.25
2022-11-28T04:33:22.281Z,99187.75
2022-11-28T04:36:26.907Z,99191.25
2022-11-28T04:39:30.860Z,99193.94
2022-11-28T04:42:39.342Z,99175.31
2022-11-28T04:45:50.150Z,99186.81
2022-11-28T04:48:53.552Z,99185.06
2022-11-28T04:52:35.446Z,99192.13
2022-11-28T04:55:45.528Z,99192.97
2022-11-28T04:58:50.500Z,99193.87
2022-11-28T05:01:54.139Z,99189.44
2022-11-28T05:04:58.290Z,99187.69
2022-11-28T05:08:01.109Z,99187.66
2022-11-28T05:11:04.742Z,99196.47
2022-11-28T05:14:07.685Z,99194.72
2022-11-28T05:17:12.762Z,99189.44
2022-11-28T05:20:15.749Z,99198.25
2022-11-28T05:23:18.238Z,99183.19
2022-11-28T05:26:21.485Z,99192.91
2022-11-28T05:29:25.448Z,99197.34
2022-11-28T05:32:31.679Z,99196.47
2022-11-28T05:35:34.193Z,99192.91
2022-11-28T05:38:37.290Z,99166.31
2022-11-28T05:41:40.189Z,99204.44
2022-11-28T05:44:43.266Z,99202.66
2022-11-28T05:47:45.858Z,99197.34
2022-11-28T05:50:50.913Z,99200.91
2022-11-28T05:53:54.002Z,99208.84
2022-11-28T05:56:57.111Z,99207.09
2022-11-28T05:59:59.711Z,99210.63
2022-11-28T06:03:04.973Z,99207.97
2022-11-28T06:06:15.893Z,99207.28
2022-11-28T06:09:23.239Z,99217.00
2022-11-28T06:12:28.313Z,99215.19
2022-11-28T06:15:36.198Z,99216.03
2022-11-28T06:18:40.922Z,99226.63
2022-11-28T06:21:43.529Z,99231.03
2022-11-28T06:24:46.361Z,99219.53
2022-11-28T06:27:48.905Z,99223.94
2022-11-28T06:30:52.084Z,99221.25
2022-11-28T06:33:54.602Z,99220.38
2022-11-28T06:36:57.384Z,99213.31
2022-11-28T06:40:00.029Z,99208.03
2022-11-28T06:43:02.843Z,99215.09
2022-11-28T06:46:05.781Z,99205.34
2022-11-28T06:49:11.271Z,99212.44
2022-11-28T06:52:13.942Z,99223.03
2022-11-28T06:55:17.716Z,99218.63
2022-11-28T06:58:20.378Z,99227.44
2022-11-28T07:01:26.856Z,99234.53
2022-11-28T07:04:29.769Z,99231.87
2022-11-28T07:07:32.605Z,99236.34
2022-11-28T07:10:37.047Z,99246.06
2022-11-28T07:13:40.976Z,99238.09
2022-11-28T07:16:43.568Z,99248.78
2022-11-28T07:19:50.529Z,99241.69
2022-11-28T07:22:56.081Z,99247.91
2022-11-28T07:26:00.305Z,99244.38
2022-11-28T07:29:06.161Z,99237.28
2022-11-28T07:32:09.164Z,99250.56
2022-11-28T07:35:12.480Z,99246.13
2022-11-28T07:38:15.381Z,99242.56
2022-11-28T07:41:22.520Z,99249.66
2022-11-28T07:44:27.965Z,99247.00
2022-11-28T07:47:30.935Z,99248.78
2022-11-28T07:50:34.835Z,99231.06
2022-11-28T07:53:37.973Z,99228.44
2022-11-28T07:57:10.774Z,99221.38
2022-11-28T08:00:04.652Z,99220.50
2022-11-28T08:03:15.094Z,99201.88
2022-11-28T08:06:19.314Z,99219.62
2022-11-28T08:09:22.152Z,99215.19
2022-11-28T08:12:25.021Z,99208.97
2022-11-28T08:15:31.661Z,99207.19
2022-11-28T08:18:35.231Z,99210.72
2022-11-28T08:21:38.263Z,99206.31
2022-11-28T08:24:41.279Z,99198.31
2022-11-28T08:27:43.902Z,99206.28
2022-11-28T08:30:48.383Z,99204.53
2022-11-28T08:33:52.739Z,99203.66
2022-11-28T08:36:55.714Z,99216.94
2022-11-28T08:39:58.278Z,99209.88
2022-11-28T08:43:01.162Z,99205.47
2022-11-28T08:46:10.688Z,99209.91
2022-11-28T08:49:13.635Z,99203.75
2022-11-28T08:52:16.609Z,99201.94
2022-11-28T08:55:23.640Z,99200.16
2022-11-28T08:58:33.119Z,99206.38
2022-11-28T09:01:36.208Z,99203.72
2022-11-28T09:04:39.060Z,99212.56
2022-11-28T09:07:42.077Z,99209.03
2022-11-28T09:10:46.101Z,99209.91
2022-11-28T09:13:49.009Z,99209.94
2022-11-28T09:16:51.606Z,99211.69
2022-11-28T09:19:54.514Z,99209.91
2022-11-28T09:22:57.100Z,99209.94
2022-11-28T09:25:59.926Z,99199.28
2022-11-28T09:29:02.722Z,99203.69
2022-11-28T09:32:05.658Z,99175.34
2022-11-28T09:35:08.668Z,99187.75
2022-11-28T09:38:11.558Z,99190.41
2022-11-28T09:41:20.103Z,99192.19
2022-11-28T09:44:31.088Z,99187.75
2022-11-28T09:47:35.209Z,99179.78
2022-11-28T09:50:40.663Z,99180.69
2022-11-28T09:53:50.989Z,99164.72
2022-11-28T09:56:53.872Z,99172.72
2022-11-28T09:59:56.523Z,99164.75
2022-11-28T10:03:10.102Z,99158.53
2022-11-28T10:06:21.233Z,99156.78
2022-11-28T10:09:54.321Z,99156.75
2022-11-28T10:13:15.536Z,99159.41
2022-11-28T10:16:27.459Z,99156.78
2022-11-28T10:19:54.322Z,99150.56
2022-11-28T10:23:09.201Z,99155.00
2022-11-28T10:26:33.169Z,99147.03
2022-11-28T10:29:49.814Z,99144.34
2022-11-28T10:33:00.350Z,99145.22
2022-11-28T10:36:03.769Z,99143.50
2022-11-28T10:39:12.212Z,99144.34
2022-11-28T10:42:56.532Z,99141.69
2022-11-28T10:46:17.679Z,99128.41
2022-11-28T10:49:29.246Z,99128.44
2022-11-28T10:52:51.893Z,99123.09
2022-11-28T10:56:00.563Z,99121.34
2022-11-28T10:59:44.349Z,99121.34
2022-11-28T11:02:54.949Z,99116.00
2022-11-28T11:05:57.810Z,99110.72
2022-11-28T11:09:00.336Z,99102.75
2022-11-28T11:12:04.886Z,99107.16
2022-11-28T11:15:18.708Z,99110.72
2022-11-28T11:18:22.807Z,99105.38
2022-11-28T11:21:27.428Z,99109.78
2022-11-28T11:24:30.805Z,99108.91
2022-11-28T11:27:33.530Z,99101.84
2022-11-28T11:30:38.839Z,99106.28
2022-11-28T11:33:42.438Z,99103.59
2022-11-28T11:36:45.374Z,99104.50
2022-11-28T11:39:52.847Z,99100.97
2022-11-28T11:42:58.326Z,99090.28
2022-11-28T11:46:08.883Z,99085.81
2022-11-28T11:49:29.317Z,99089.38
2022-11-28T11:52:32.035Z,99100.88
2022-11-28T11:55:43.641Z,99092.03
2022-11-28T11:58:49.946Z,99090.28
2022-11-28T12:02:01.950Z,99088.50
2022-11-28T12:05:17.971Z,99087.63
2022-11-28T12:08:34.116Z,99077.88
2022-11-28T12:15:30.286Z,99084.97
2022-11-28T12:19:06.670Z,99076.06
2022-11-28T12:22:29.300Z,99076.06
2022-11-28T12:25:54.568Z,99075.19
2022-11-28T12:29:22.210Z,99072.53
2022-11-28T12:32:49.519Z,99076.06
2022-11-28T12:36:22.568Z,99081.38
2022-11-28T12:39:43.472Z,99081.41
2022-11-28T12:43:04.996Z,99080.50
2022-11-28T12:46:23.558Z,99069.00
2022-11-28T12:49:30.845Z,99072.56
2022-11-28T12:52:44.906Z,99071.66
2022-11-28T12:56:25.348Z,99069.00
2022-11-28T12:59:49.458Z,99066.38
2022-11-28T13:03:21.017Z,99066.38
2022-11-28T13:06:47.531Z,99071.66
2022-11-28T13:10:05.428Z,99071.66
2022-11-28T13:13:30.149Z,99066.31
2022-11-28T13:16:50.990Z,99063.69
2022-11-28T13:20:32.954Z,99055.50
2022-11-28T13:23:35.392Z,99056.59
2022-11-28T13:26:47.541Z,99055.41
2022-11-28T13:30:15.426Z,99061.69
2022-11-28T13:33:27.379Z,99053.81
2022-11-28T13:40:42.161Z,99043.31
2022-11-28T13:44:31.625Z,99050.44
2022-11-28T13:47:37.940Z,99046.91
2022-11-28T13:50:41.328Z,99038.06
2022-11-28T13:53:46.002Z,99042.50
2022-11-28T13:57:04.008Z,99043.41
2022-11-28T14:00:22.035Z,99045.19
2022-11-28T14:03:26.164Z,99040.75
2022-11-28T14:06:31.086Z,99041.63
2022-11-28T14:09:44.748Z,99030.12
2022-11-28T14:13:05.801Z,99035.44
2022-11-28T14:16:37.849Z,99043.41
2022-11-28T14:19:49.104Z,99038.97
2022-11-28T14:23:15.889Z,99044.28
2022-11-28T14:26:34.205Z,99041.66
2022-11-28T14:29:40.710Z,99040.78
2022-11-28T14:32:43.738Z,99035.44
2022-11-28T14:36:05.858Z,99036.34
2022-11-28T14:39:12.148Z,99033.69
2022-11-28T14:42:30.597Z,99029.28
2022-11-28T14:45:43.058Z,99030.12
2022-11-28T14:48:58.276Z,99023.94
2022-11-28T14:52:41.777Z,99022.19
2022-11-28T14:55:44.882Z,99027.47
2022-11-28T14:58:48.541Z,99023.94
2022-11-28T15:02:01.361Z,99025.69
2022-11-28T15:05:13.178Z,99023.91
2022-11-28T15:08:29.563Z,99015.06
2022-11-28T15:11:47.115Z,99021.25
2022-11-28T15:14:53.498Z,99013.31
2022-11-28T15:17:56.531Z,99006.22
2022-11-28T15:21:05.424Z,99017.69
2022-11-28T15:24:30.445Z,99030.06
2022-11-28T15:27:33.282Z,99023.88
2022-11-28T15:30:44.325Z,99023.88
2022-11-28T15:33:48.191Z,99022.09
2022-11-28T15:36:52.741Z,99026.47
2022-11-28T15:39:55.709Z,99025.56
2022-11-28T15:43:00.135Z,99024.66
2022-11-28T15:46:03.308Z,99026.44
2022-11-28T15:49:07.235Z,99033.47
2022-11-28T15:52:18.330Z,99034.38
2022-11-28T15:55:21.255Z,99039.63
2022-11-28T15:58:31.696Z,99040.50
2022-11-28T16:01:35.157Z,99039.63
2022-11-28T16:04:38.537Z,99046.66
2022-11-28T16:07:44.958Z,99043.13
2022-11-28T16:10:48.377Z,99048.41
2022-11-28T16:13:52.441Z,99051.06
2022-11-28T16:16:57.151Z,99049.31
2022-11-28T16:20:01.057Z,99050.16
2022-11-28T16:23:18.606Z,99054.56
2022-11-28T16:26:31.177Z,99059.84
2022-11-28T16:29:36.264Z,99060.75
2022-11-28T16:32:40.327Z,99044.78
2022-11-28T16:35:43.332Z,99057.19
2022-11-28T16:38:47.256Z,99066.03
2022-11-28T16:42:07.896Z,99057.16
2022-11-28T16:45:19.272Z,99063.31
2022-11-28T16:48:26.901Z,99063.25
2022-11-28T16:51:35.240Z,99060.59
2022-11-28T16:54:38.032Z,99056.16
2022-11-28T16:57:47.169Z,99060.53
2022-11-28T17:01:08.283Z,99055.19
2022-11-28T17:04:30.890Z,99047.19
2022-11-28T17:07:33.736Z,99047.19
2022-11-28T17:10:36.307Z,99052.44
2022-11-28T17:13:39.287Z,99051.53
2022-11-28T17:16:42.725Z,99056.78
2022-11-28T17:19:46.588Z,99057.66
2022-11-28T17:22:51.113Z,99054.97
2022-11-28T17:25:54.054Z,99045.22
2022-11-28T17:28:58.983Z,99054.88
2022-11-28T17:32:02.425Z,99062.84
2022-11-28T17:35:16.055Z,99052.22
2022-11-28T17:38:20.324Z,99059.22
2022-11-28T17:41:23.418Z,99054.78
2022-11-28T17:44:29.116Z,99059.12
2022-11-28T17:47:31.818Z,99065.19
2022-11-28T17:50:34.855Z,99057.16
2022-11-28T17:53:37.710Z,99057.97
2022-11-28T17:56:40.876Z,99057.06
2022-11-28T17:59:44.515Z,99064.19
2022-11-28T18:02:48.138Z,99059.78
2022-11-28T18:05:51.701Z,99063.28
2022-11-28T18:08:54.601Z,99054.47
2022-11-28T18:11:57.881Z,99062.41
2022-11-28T18:15:02.496Z,99058.06
2022-11-28T18:18:06.622Z,99061.53
2022-11-28T18:21:10.703Z,99038.63
2022-11-28T18:24:14.051Z,99061.63
2022-11-28T18:27:16.945Z,99063.44
2022-11-28T18:30:20.333Z,99057.25
2022-11-28T18:33:23.268Z,99067.88
2022-11-28T18:36:27.589Z,99051.13
2022-11-28T18:39:31.348Z,99064.34
2022-11-28T18:42:34.648Z,99063.53
2022-11-28T18:45:40.941Z,99075.03
2022-11-28T18:48:45.412Z,99070.63
2022-11-28T18:51:48.547Z,99078.53
2022-11-28T18:54:51.274Z,99072.44
2022-11-28T18:57:53.825Z,99082.09
2022-11-28T19:00:57.095Z,99071.53
2022-11-28T19:04:08.240Z,99072.47
2022-11-28T19:07:12.145Z,99080.38
2022-11-28T19:10:14.786Z,99072.44
2022-11-28T19:13:19.819Z,99065.41
2022-11-28T19:16:27.960Z,99068.03
2022-11-28T19:19:31.513Z,99058.34
2022-11-28T19:22:36.013Z,99067.16
2022-11-28T19:25:39.883Z,99063.63
2022-11-28T19:28:42.868Z,99069.81
2022-11-28T19:31:46.087Z,99067.19
2022-11-28T19:34:52.296Z,99065.41
2022-11-28T19:37:55.585Z,99064.56
2022-11-28T19:40:58.996Z,99067.22
2022-11-28T19:44:02.339Z,99060.16
2022-11-28T19:47:06.837Z,99043.34
2022-11-28T19:50:10.645Z,99057.56
2022-11-28T19:53:13.520Z,99061.06
2022-11-28T19:56:20.000Z,99059.28
2022-11-28T19:59:22.718Z,99046.91
2022-11-28T20:02:25.805Z,99059.34
2022-11-28T20:05:30.973Z,99059.34
2022-11-28T20:08:34.213Z,99061.13
2022-11-28T20:11:39.369Z,99061.16
2022-11-28T20:14:42.116Z,99061.13
2022-11-28T20:17:45.633Z,99057.59
2022-11-28T20:20:48.594Z,99057.63
2022-11-28T20:23:54.183Z,99056.78
2022-11-28T20:26:57.407Z,99061.16
2022-11-28T20:30:05.983Z,99058.47
2022-11-28T20:33:09.076Z,99057.63
2022-11-28T20:36:18.269Z,99060.28
2022-11-28T20:39:22.137Z,99055.00
2022-11-28T20:42:25.262Z,99057.66
2022-11-28T20:45:27.836Z,99055.87
2022-11-28T20:48:30.887Z,99060.28
2022-11-28T20:51:35.148Z,99059.47
2022-11-28T20:54:38.247Z,99055.87
2022-11-28T20:57:41.178Z,99056.66
2022-11-28T21:00:46.166Z,99048.75
2022-11-28T21:03:49.208Z,99052.28
2022-11-28T21:06:52.422Z,99053.19
2022-11-28T21:09:59.855Z,99061.19
2022-11-28T21:13:02.683Z,99057.66
2022-11-28T21:16:10.790Z,99062.97
2022-11-28T21:19:14.204Z,99070.94
2022-11-28T21:22:17.030Z,99063.84
2022-11-28T21:25:20.540Z,99067.38
2022-11-28T21:28:23.147Z,99062.09
2022-11-28T21:31:28.134Z,99067.38
2022-11-28T21:34:30.685Z,99058.53
2022-11-28T21:37:34.100Z,99062.06
2022-11-28T21:40:36.606Z,99058.47
2022-11-28T21:43:39.527Z,99062.00
2022-11-28T21:46:42.158Z,99062.91
2022-11-28T21:49:45.189Z,99058.47
2022-11-28T21:52:48.329Z,99063.78
2022-11-28T21:55:51.465Z,99062.00
2022-11-28T21:58:54.730Z,99054.91
2022-11-28T22:01:59.910Z,99062.87
2022-11-28T22:05:03.367Z,99069.06
2022-11-28T22:08:06.017Z,99067.28
2022-11-28T22:11:11.332Z,99067.25
2022-11-28T22:14:14.175Z,99064.63
2022-11-28T22:17:17.290Z,99065.50
2022-11-28T22:20:20.279Z,99065.47
2022-11-28T22:23:23.210Z,99059.28
2022-11-28T22:26:26.021Z,99060.16
2022-11-28T22:29:29.169Z,99064.56
2022-11-28T22:32:31.771Z,99072.44
2022-11-28T22:35:34.559Z,99067.09
2022-11-28T22:38:38.592Z,99060.06
2022-11-28T22:41:42.330Z,99063.59
2022-11-28T22:44:45.294Z,99053.88
2022-11-28T22:47:50.000Z,99061.84
2022-11-28T22:50:52.678Z,99057.41
2022-11-28T22:53:57.030Z,99056.53
2022-11-28T22:57:00.474Z,99051.09
2022-11-28T23:00:06.645Z,99059.09
2022-11-28T23:03:09.373Z,99055.59
2022-11-28T23:06:14.928Z,99053.78
2022-11-28T23:09:18.534Z,99055.59
2022-11-28T23:12:21.357Z,99063.53
2022-11-28T23:15:23.990Z,99057.25
2022-11-28T23:18:27.398Z,99059.88
2022-11-28T23:21:32.676Z,99069.53
2022-11-28T23:24:35.619Z,99061.63
2022-11-28T23:27:38.851Z,99064.25
2022-11-28T23:30:42.850Z,99062.53
2022-11-28T23:33:45.926Z,99057.19
2022-11-28T23:36:49.504Z,99051.88
2022-11-28T23:39:52.438Z,99052.69
2022-11-28T23:42:55.402Z,99048.28
2022-11-28T23:45:58.511Z,99059.69
2022-11-28T23:49:01.478Z,99068.56
2022-11-28T23:52:04.132Z,99056.97
2022-11-28T23:55:07.241Z,99064.09
2022-11-28T23:58:09.793Z,99064.94
